A- A+ FrançaisEnglishEspañol中国

最近的 LFBT Tarbes-Lourdes-PyrénéesRPUG LingayenSCAS Puerto AysenESUP PajalaPAGL GolovinPAUN Unalakleet

飞行员的航空天气,使用METAR(气象机场报告)进行的飞行准备和TAF(终端机场预报:针对以下情况的短期天气预报)航空)。 以及其他资源,例如VAC(目视进近图)和NOTAM(通知飞行员)以进行预试飞行.

METAR, TAF, VAC, NOTAM El Papalon机场 (El Salvador) / OACI MSSM

它位于附近 San Miguel, San Miquel 在 7.5 km, Moncagua 在 17 km, Barrios 在 17 km, San Alejo 在 18 km, Hacienda Tierra Blanca 在 22 km, Jocoro 在 23 km, El Triunfo 在 23 km, Jucuaran 在 25 km, Boquerón 在 25 km, Chinameca 在 25 km,

机场的高度为 El Papalon机场的

86 m = 282 ft

附近的机场El Papalon机场的

目前的天气 El Papalon机场的 - MSSM

ciel dégagé
36°C

Vent 4 km/h

可提供5天天气预报 San Miquel 在 7.5 km, Moncagua 在 17 km, Barrios 在 17 km, San Alejo 在 18 km, Hacienda Tierra Blanca 在 22 km, Jocoro 在 23 km, El Triunfo 在 23 km, Jucuaran 在 25 km, Boquerón 在 25 km, Chinameca 在 25 km,

METAR El Papalon机场的 - MSSM

MSSM 092050Z 17002KT 9999 FEW030 36/26 Q1009 A2980

El Papalon机场METAR解码 (El Salvador)

MSSM机场发行的METAR日期2020年08月09日至20:50 GMT, 警告:此METAR已过期, 已于 50 天 4 小时 27 分钟.

可见度为大于 10 km = 大于6.2 sm.

温度为36°C = 97 °F 露点为26°C = 79 °F 。 这相当于57%的相对湿度。.

QNH是1009 hPa = 29.8 inHg

的风2 kt = 4 km/h, 风向为170°.

云:处少云3000 ft = 910 m.

A2980

TAF El Papalon机场的 - MSSM

没有TAF

El Papalon机场的NOTAM

提供的NOTAM不能保证其时事性。 在将其用于飞行准备或在飞行期间使用之前,飞行员是唯一负责验证其有效性的人员。

没有通知

数据源